Time;durP1;ratioP1;P1;durP2;ratioP2;P2;SDS_P1;SDS_P2;PMS_P1;PMS_P2;Temp;Humidity;BMP_temperature;BMP_pressure;BME280_temperature;BME280_humidity;BME280_pressure;Samples;Min_cycle;Max_cycle;Signal;HPM_P1;HPM_P2
2021/07/11 00:00:00;;;;;;;2.05;1.80;;;;;;;20.13;79.46;95639.44;5016308;28;20577;-85
2021/07/11 00:02:29;;;;;;;1.88;1.70;;;;;;;20.11;79.61;95661.63;5015516;28;20211;-86
2021/07/11 00:04:56;;;;;;;2.72;1.40;;;;;;;20.05;80.44;95676.41;5016384;28;20257;-87
2021/07/11 00:07:24;;;;;;;1.83;1.73;;;;;;;19.91;81.74;95675.88;5015328;28;20202;-86
2021/07/11 00:09:50;;;;;;;2.55;1.83;;;;;;;19.86;82.99;95691.47;5015898;28;20241;-86
2021/07/11 00:12:20;;;;;;;2.10;1.90;;;;;;;19.74;85.86;95695.13;5015082;28;20226;-85
2021/07/11 00:14:46;;;;;;;2.83;2.60;;;;;;;19.62;84.64;95695.19;5015130;28;20222;-86
2021/07/11 00:17:12;;;;;;;2.80;1.90;;;;;;;19.49;81.97;95703.22;5016393;28;20214;-87
2021/07/11 00:19:39;;;;;;;2.13;1.83;;;;;;;19.23;80.76;95701.88;5015674;28;20230;-86
2021/07/11 00:22:06;;;;;;;1.75;1.65;;;;;;;19.18;80.89;95699.16;5015948;28;20222;-86
2021/07/11 00:24:38;;;;;;;2.65;1.60;;;;;;;19.21;81.49;95703.91;5016577;28;20209;-86
2021/07/11 00:27:05;;;;;;;1.77;1.67;;;;;;;19.21;81.25;95707.31;5016521;28;20206;-85
2021/07/11 00:29:31;;;;;;;2.25;1.90;;;;;;;19.23;80.31;95713.13;5016953;28;20202;-86
2021/07/11 00:31:59;;;;;;;1.83;1.73;;;;;;;19.23;81.06;95707.09;5016093;28;20235;-86
2021/07/11 00:34:26;;;;;;;1.70;1.60;;;;;;;19.18;81.80;95714.81;5016688;28;20207;-85
2021/07/11 00:36:53;;;;;;;2.90;1.52;;;;;;;18.98;81.62;95712.53;5020365;28;20204;-86
2021/07/11 00:39:19;;;;;;;1.70;1.60;;;;;;;18.89;82.51;95711.25;5020146;28;20223;-86
2021/07/11 00:41:47;;;;;;;1.75;1.65;;;;;;;18.93;83.30;95715.81;5020445;28;20248;-85
2021/07/11 00:44:14;;;;;;;1.42;1.33;;;;;;;18.76;83.81;95721.91;5020145;28;20585;-85
2021/07/11 00:46:43;;;;;;;2.03;1.90;;;;;;;18.80;84.65;95717.84;5020476;28;20202;-86
2021/07/11 00:49:10;;;;;;;2.45;1.58;;;;;;;18.71;85.52;95714.75;5021323;28;20198;-86
2021/07/11 00:51:37;;;;;;;1.80;1.67;;;;;;;18.87;83.99;95710.69;5020952;28;20222;-87
2021/07/11 00:54:04;;;;;;;1.67;1.58;;;;;;;18.83;85.31;95712.97;5019734;28;20198;-86
2021/07/11 00:56:30;;;;;;;2.13;1.70;;;;;;;18.85;85.95;95715.34;5020780;28;20851;-86
2021/07/11 00:58:59;;;;;;;2.40;1.80;;;;;;;18.80;86.46;95710.81;5020277;28;20214;-86
2021/07/11 01:01:33;;;;;;;1.70;1.60;;;;;;;18.67;87.40;95721.41;5019536;28;20219;-85
2021/07/11 01:04:02;;;;;;;1.80;1.70;;;;;;;18.68;87.86;95717.00;5020927;28;20198;-85
2021/07/11 01:06:34;;;;;;;2.30;1.67;;;;;;;18.80;87.13;95725.66;5021340;28;20663;-84
2021/07/11 01:09:03;;;;;;;1.40;1.30;;;;;;;18.77;85.78;95713.06;5020882;28;20199;-86
2021/07/11 01:11:33;;;;;;;1.75;1.65;;;;;;;18.77;85.74;95705.22;5020052;28;20231;-85
2021/07/11 01:14:02;;;;;;;2.03;1.88;;;;;;;18.75;86.70;95710.66;5021384;28;20581;-85
2021/07/11 01:16:31;;;;;;;2.13;1.75;;;;;;;18.76;86.63;95719.28;5021377;28;20203;-86
2021/07/11 01:19:01;;;;;;;1.60;1.50;;;;;;;18.75;86.61;95720.31;5020843;28;20234;-86
2021/07/11 01:21:30;;;;;;;2.65;1.60;;;;;;;18.61;88.50;95714.50;5020262;28;20286;-84
2021/07/11 01:24:01;;;;;;;1.90;1.80;;;;;;;18.63;89.28;95715.09;5020503;28;20203;-87
2021/07/11 01:26:30;;;;;;;1.65;1.55;;;;;;;18.59;88.79;95719.16;5020221;28;20203;-86
2021/07/11 01:28:57;;;;;;;2.08;1.80;;;;;;;18.54;89.17;95717.16;5020015;28;20205;-86
2021/07/11 01:31:25;;;;;;;2.13;1.80;;;;;;;18.48;90.41;95719.88;5020586;28;20234;-86
2021/07/11 01:33:53;;;;;;;2.45;1.65;;;;;;;18.61;89.48;95725.72;5021348;28;20198;-85
2021/07/11 01:36:21;;;;;;;1.80;1.50;;;;;;;18.66;88.73;95719.06;5021198;28;20202;-85
2021/07/11 01:38:49;;;;;;;1.77;1.58;;;;;;;18.68;88.62;95730.03;5021211;28;20203;-86
2021/07/11 01:41:17;;;;;;;2.30;1.75;;;;;;;18.68;88.76;95722.22;5020252;28;20226;-85
2021/07/11 01:43:46;;;;;;;2.08;1.85;;;;;;;18.64;88.65;95729.72;5020726;28;20203;-83
2021/07/11 01:46:13;;;;;;;2.00;1.70;;;;;;;18.66;88.00;95734.72;5019979;28;20206;-86
2021/07/11 01:48:40;;;;;;;1.88;1.52;;;;;;;18.74;87.58;95732.56;5020559;28;20547;-85
2021/07/11 01:51:07;;;;;;;1.75;1.65;;;;;;;18.82;86.48;95731.47;5020237;28;20218;-86
2021/07/11 01:53:38;;;;;;;2.63;1.45;;;;;;;18.79;86.52;95717.03;5020327;28;20207;-86
2021/07/11 01:56:06;;;;;;;1.80;1.70;;;;;;;18.70;86.42;95720.97;5019925;28;20206;-85
2021/07/11 01:58:34;;;;;;;2.33;1.70;;;;;;;18.69;86.09;95729.03;5019809;28;20210;-85
2021/07/11 02:01:04;;;;;;;1.40;1.30;;;;;;;18.53;85.58;95728.63;5019460;28;20260;-84
2021/07/11 02:03:32;;;;;;;1.50;1.40;;;;;;;18.61;84.97;95727.53;5020127;28;20199;-87
2021/07/11 02:05:58;;;;;;;1.30;1.23;;;;;;;18.56;84.31;95730.78;5019668;28;20203;-85
2021/07/11 02:08:25;;;;;;;1.48;1.30;;;;;;;18.57;84.31;95727.16;5020057;28;20207;-84
2021/07/11 02:10:53;;;;;;;1.52;1.30;;;;;;;18.52;83.16;95734.84;5019473;28;20229;-84
2021/07/11 02:13:26;;;;;;;1.77;1.15;;;;;;;18.60;82.45;95731.16;5019375;28;20733;-85
2021/07/11 02:15:55;;;;;;;0.98;0.98;;;;;;;18.55;82.54;95731.00;5020029;28;20209;-86
2021/07/11 02:18:27;;;;;;;1.05;1.05;;;;;;;18.31;82.27;95727.50;5020350;28;20226;-85
2021/07/11 02:20:55;;;;;;;1.63;1.10;;;;;;;18.22;83.01;95737.47;5019854;28;20223;-85
2021/07/11 02:23:24;;;;;;;1.10;1.10;;;;;;;18.28;83.42;95740.97;5019383;28;20203;-87
2021/07/11 02:25:52;;;;;;;1.30;1.20;;;;;;;18.25;83.65;95733.63;5019256;28;20210;-86
2021/07/11 02:28:22;;;;;;;1.20;1.10;;;;;;;18.30;83.42;95729.31;5019580;28;20211;-86
2021/07/11 02:30:55;;;;;;;1.15;1.05;;;;;;;18.29;83.39;95732.16;5019037;28;20223;-86
2021/07/11 02:33:31;;;;;;;1.17;1.02;;;;;;;18.23;82.66;95733.06;5019660;28;20782;-86
2021/07/11 02:36:00;;;;;;;1.02;1.02;;;;;;;18.33;83.38;95735.13;5019162;28;20203;-85
2021/07/11 02:38:31;;;;;;;1.20;1.10;;;;;;;18.13;82.83;95732.75;5019383;28;20210;-86
2021/07/11 02:40:58;;;;;;;1.15;1.05;;;;;;;18.11;83.41;95737.41;5019121;28;20237;-86
2021/07/11 02:43:25;;;;;;;1.88;0.95;;;;;;;18.17;83.82;95739.94;5019973;28;20203;-85
2021/07/11 02:45:52;;;;;;;1.00;1.00;;;;;;;18.12;83.13;95736.38;5019450;28;20207;-85
2021/07/11 02:48:20;;;;;;;0.80;0.80;;;;;;;18.12;83.94;95733.78;5021053;28;20207;-86
2021/07/11 02:50:49;;;;;;;1.08;0.90;;;;;;;18.10;83.34;95734.00;5020665;28;20223;-85
2021/07/11 02:53:21;;;;;;;2.58;1.27;;;;;;;18.04;82.70;95740.09;5020970;28;20210;-86
2021/07/11 02:55:50;;;;;;;1.10;1.00;;;;;;;17.84;82.73;95742.13;5020210;28;20206;-85
2021/07/11 02:58:20;;;;;;;0.90;0.90;;;;;;;17.87;82.82;95739.09;5019682;28;20209;-85
2021/07/11 03:00:48;;;;;;;1.08;1.00;;;;;;;17.98;83.25;95740.97;5020651;28;20227;-85
2021/07/11 03:03:17;;;;;;;0.90;0.90;;;;;;;18.07;81.90;95737.06;5020693;28;20709;-86
2021/07/11 03:05:44;;;;;;;0.90;0.90;;;;;;;18.17;81.40;95737.31;5021004;28;20210;-86
2021/07/11 03:08:12;;;;;;;0.93;0.88;;;;;;;18.12;80.81;95739.00;5020721;28;20206;-86
2021/07/11 03:10:40;;;;;;;0.80;0.80;;;;;;;18.00;81.13;95730.34;5020568;28;20226;-86
2021/07/11 03:13:07;;;;;;;1.30;0.95;;;;;;;18.03;80.53;95733.28;5020862;28;20203;-85
2021/07/11 03:15:34;;;;;;;1.88;0.90;;;;;;;18.04;81.72;95734.09;5020215;28;20210;-85
2021/07/11 03:18:01;;;;;;;0.70;0.70;;;;;;;18.11;81.40;95734.78;5020470;28;20202;-86
2021/07/11 03:20:28;;;;;;;0.77;0.77;;;;;;;18.12;81.63;95718.94;5018949;28;20309;-86
2021/07/11 03:22:56;;;;;;;1.40;0.70;;;;;;;18.17;81.90;95720.91;5019398;28;20230;-85
2021/07/11 03:25:26;;;;;;;0.85;0.70;;;;;;;18.05;82.36;95725.25;5019292;28;20199;-86
2021/07/11 03:27:53;;;;;;;0.70;0.70;;;;;;;17.99;82.51;95726.13;5019631;28;20236;-84
2021/07/11 03:30:22;;;;;;;0.80;0.80;;;;;;;17.90;82.71;95721.22;5020243;28;20229;-85
2021/07/11 03:32:52;;;;;;;0.70;0.70;;;;;;;17.92;83.29;95721.00;5019904;28;20293;-86
2021/07/11 03:35:25;;;;;;;1.92;0.80;;;;;;;17.86;84.15;95725.28;5019525;28;20203;-86
2021/07/11 03:37:56;;;;;;;0.60;0.60;;;;;;;17.78;85.31;95722.97;5019353;28;20206;-85
2021/07/11 03:40:27;;;;;;;1.58;0.60;;;;;;;17.81;86.63;95716.53;5019600;28;20235;-85
2021/07/11 03:42:56;;;;;;;0.70;0.70;;;;;;;17.86;85.61;95724.50;5019725;28;20214;-85
2021/07/11 03:45:24;;;;;;;0.77;0.70;;;;;;;17.85;85.58;95720.28;5019497;28;20202;-86
2021/07/11 03:48:05;;;;;;;0.82;0.82;;;;;;;17.94;85.74;95724.97;5020000;28;20202;-85
2021/07/11 03:50:31;;;;;;;0.80;0.80;;;;;;;17.95;84.87;95720.56;5019427;28;20229;-85
2021/07/11 03:53:03;;;;;;;0.70;0.70;;;;;;;17.86;85.00;95724.50;5019553;28;20199;-86
2021/07/11 03:55:32;;;;;;;1.13;0.77;;;;;;;17.87;84.56;95716.47;5019707;28;20695;-85
2021/07/11 03:58:00;;;;;;;0.82;0.80;;;;;;;17.83;84.38;95730.13;5019767;28;20632;-85
2021/07/11 04:00:28;;;;;;;0.73;0.73;;;;;;;17.76;84.25;95722.38;5019149;28;20222;-86
2021/07/11 04:02:56;;;;;;;0.80;0.80;;;;;;;17.75;84.60;95717.38;5018955;28;20282;-85
2021/07/11 04:05:26;;;;;;;0.77;0.77;;;;;;;17.74;85.19;95718.41;5019385;28;20207;-86
2021/07/11 04:07:54;;;;;;;0.80;0.80;;;;;;;17.74;84.66;95715.78;5019245;28;20209;-86
2021/07/11 04:10:24;;;;;;;2.47;0.82;;;;;;;17.75;84.89;95715.56;5017942;28;20277;-86
2021/07/11 04:12:52;;;;;;;0.75;0.63;;;;;;;17.77;84.86;95713.56;5018449;28;20245;-85
2021/07/11 04:15:18;;;;;;;0.90;0.90;;;;;;;17.77;84.29;95718.75;5018764;28;20222;-86
2021/07/11 04:17:48;;;;;;;2.35;0.98;;;;;;;17.84;84.35;95714.28;5018706;28;20229;-85
2021/07/11 04:20:17;;;;;;;0.80;0.80;;;;;;;17.88;83.92;95712.84;5018272;28;20223;-85
2021/07/11 04:22:44;;;;;;;0.70;0.70;;;;;;;17.93;84.27;95707.75;5019025;28;20199;-85
2021/07/11 04:25:12;;;;;;;1.08;0.80;;;;;;;17.99;84.67;95710.50;5018422;28;20202;-85
2021/07/11 04:27:39;;;;;;;0.85;0.77;;;;;;;17.98;84.67;95708.91;5018447;28;20198;-85
2021/07/11 04:30:09;;;;;;;0.70;0.70;;;;;;;17.93;84.14;95702.53;5018187;28;20213;-86
2021/07/11 04:32:36;;;;;;;1.23;0.80;;;;;;;18.00;84.13;95710.28;5017502;28;20214;-85
2021/07/11 04:35:04;;;;;;;1.25;0.88;;;;;;;17.99;86.29;95708.69;5018272;28;20206;-85
2021/07/11 04:37:30;;;;;;;1.92;1.00;;;;;;;17.93;85.73;95709.56;5017906;28;20210;-85
2021/07/11 04:39:57;;;;;;;0.70;0.70;;;;;;;17.98;85.50;95704.50;5017965;28;20229;-85
2021/07/11 04:42:23;;;;;;;0.90;0.90;;;;;;;18.00;85.28;95709.50;5017588;28;20226;-85
2021/07/11 04:44:51;;;;;;;0.90;0.80;;;;;;;18.04;85.11;95705.44;5018636;28;20215;-85
2021/07/11 04:47:19;;;;;;;0.80;0.80;;;;;;;18.01;85.32;95700.66;5019076;28;20199;-86
2021/07/11 04:49:45;;;;;;;0.95;0.95;;;;;;;18.03;84.15;95707.25;5019238;28;20821;-86
2021/07/11 04:52:14;;;;;;;1.10;1.00;;;;;;;18.03;83.66;95709.84;5018390;28;20222;-85
2021/07/11 04:54:40;;;;;;;0.70;0.70;;;;;;;17.98;84.33;95714.91;5018698;28;20195;-85
2021/07/11 04:57:07;;;;;;;0.80;0.80;;;;;;;18.04;84.40;95718.47;5018827;28;20203;-86
2021/07/11 04:59:33;;;;;;;1.42;0.82;;;;;;;18.04;84.15;95721.88;5019181;28;20195;-86
2021/07/11 05:02:00;;;;;;;0.60;0.60;;;;;;;18.07;84.18;95729.25;5018582;28;20218;-86
2021/07/11 05:04:29;;;;;;;1.40;0.70;;;;;;;18.05;83.70;95725.25;5018579;28;20198;-86
2021/07/11 05:06:55;;;;;;;1.05;0.90;;;;;;;18.05;83.49;95725.25;5018740;28;20211;-86
2021/07/11 05:09:21;;;;;;;0.80;0.80;;;;;;;18.07;83.74;95723.25;5017457;28;20211;-86
2021/07/11 05:11:48;;;;;;;0.73;0.73;;;;;;;18.10;83.89;95730.59;5018131;28;20223;-85
2021/07/11 05:14:14;;;;;;;0.80;0.80;;;;;;;18.07;83.24;95733.66;5017967;28;20617;-86
2021/07/11 05:16:41;;;;;;;1.10;0.90;;;;;;;18.07;83.26;95736.28;5017414;28;20199;-85
2021/07/11 05:19:08;;;;;;;2.72;0.90;;;;;;;18.00;83.24;95728.53;5018222;28;20194;-85
2021/07/11 05:21:38;;;;;;;1.15;0.75;;;;;;;18.02;83.02;95731.72;5019554;28;20223;-85
2021/07/11 05:24:06;;;;;;;1.45;0.80;;;;;;;18.09;83.24;95729.03;5021031;28;20262;-85
2021/07/11 05:26:33;;;;;;;0.88;0.70;;;;;;;18.08;82.93;95723.03;5021311;28;20665;-85
2021/07/11 05:28:59;;;;;;;0.68;0.68;;;;;;;18.07;83.19;95725.84;5022196;28;20199;-86
2021/07/11 05:31:26;;;;;;;0.80;0.80;;;;;;;18.10;83.70;95727.97;5021224;28;20231;-86
2021/07/11 05:33:52;;;;;;;1.00;0.90;;;;;;;18.13;82.70;95727.56;5021398;28;20205;-85
2021/07/11 05:36:18;;;;;;;1.60;0.73;;;;;;;18.15;83.03;95718.50;5022112;28;20203;-85
2021/07/11 05:38:46;;;;;;;0.73;0.60;;;;;;;18.18;83.07;95712.84;5021839;28;20214;-85
2021/07/11 05:41:13;;;;;;;0.73;0.73;;;;;;;18.22;82.86;95718.44;5021937;28;20231;-86
2021/07/11 05:43:45;;;;;;;0.80;0.80;;;;;;;18.25;83.13;95715.38;5023552;28;20305;-86
2021/07/11 05:46:12;;;;;;;0.60;0.60;;;;;;;18.29;82.79;95724.34;5021676;28;20202;-82
2021/07/11 05:48:39;;;;;;;0.80;0.80;;;;;;;18.26;82.75;95720.38;5021776;28;20207;-82
2021/07/11 05:51:05;;;;;;;1.70;0.90;;;;;;;18.20;84.09;95716.03;5016423;28;20562;-83
2021/07/11 05:53:32;;;;;;;1.35;0.80;;;;;;;18.09;81.77;95716.75;5016858;28;20527;-83
2021/07/11 05:55:59;;;;;;;1.45;0.80;;;;;;;18.20;82.34;95720.47;5016744;28;20693;-82
2021/07/11 05:58:26;;;;;;;1.48;0.90;;;;;;;18.23;81.88;95718.22;5016811;28;20233;-83
2021/07/11 06:00:52;;;;;;;1.25;0.82;;;;;;;18.29;82.57;95722.53;5016407;28;20226;-83
2021/07/11 06:03:20;;;;;;;1.08;0.80;;;;;;;18.31;81.19;95719.69;5018209;28;20202;-84
2021/07/11 06:05:46;;;;;;;2.72;0.90;;;;;;;18.32;81.76;95723.91;5017402;28;20266;-83
2021/07/11 06:08:13;;;;;;;3.30;0.80;;;;;;;18.34;81.36;95726.28;5018117;28;20207;-86
2021/07/11 06:10:39;;;;;;;0.80;0.80;;;;;;;18.36;80.86;95722.44;5021460;28;20223;-85
2021/07/11 06:13:09;;;;;;;0.65;0.65;;;;;;;18.37;80.55;95729.25;5021915;28;20198;-86
2021/07/11 06:15:44;;;;;;;0.98;0.90;;;;;;;18.35;80.03;95727.88;5022853;28;20233;-83
2021/07/11 06:18:11;;;;;;;0.80;0.80;;;;;;;18.42;81.17;95729.38;5022777;28;20229;-85
2021/07/11 06:20:39;;;;;;;0.65;0.65;;;;;;;18.45;80.99;95728.16;5022202;28;20262;-85
2021/07/11 06:23:08;;;;;;;0.90;0.90;;;;;;;18.42;79.93;95737.22;5022190;28;20205;-84
2021/07/11 06:25:35;;;;;;;1.85;0.80;;;;;;;18.38;80.61;95737.88;5021028;28;20202;-85
2021/07/11 06:28:01;;;;;;;0.90;0.90;;;;;;;18.40;80.98;95738.44;5019809;28;20736;-88
2021/07/11 06:30:29;;;;;;;0.73;0.70;;;;;;;18.42;80.76;95739.81;5020034;28;20226;-88
2021/07/11 06:32:56;;;;;;;0.82;0.80;;;;;;;18.47;81.09;95742.53;5019534;28;20214;-86
2021/07/11 06:35:24;;;;;;;2.47;0.80;;;;;;;18.46;81.41;95746.19;5022391;28;20206;-82
2021/07/11 06:37:51;;;;;;;0.80;0.80;;;;;;;18.43;80.44;95753.66;5021950;28;20384;-86
2021/07/11 06:40:20;;;;;;;1.75;0.70;;;;;;;18.46;80.45;95748.78;5021400;28;20221;-85
2021/07/11 06:42:47;;;;;;;0.90;0.70;;;;;;;18.45;80.85;95751.63;5021929;28;20211;-86
2021/07/11 06:45:15;;;;;;;2.15;0.90;;;;;;;18.42;81.26;95762.47;5022007;28;20203;-85
2021/07/11 06:47:43;;;;;;;0.77;0.77;;;;;;;18.41;81.17;95750.47;5022222;28;20213;-83
2021/07/11 06:50:13;;;;;;;1.48;0.90;;;;;;;18.45;80.28;95762.03;5019904;28;20203;-87
2021/07/11 06:52:40;;;;;;;0.98;0.88;;;;;;;18.51;80.82;95764.53;5021770;28;20566;-83
2021/07/11 06:55:09;;;;;;;0.85;0.77;;;;;;;18.52;80.75;95766.13;5020770;28;20210;-87
2021/07/11 06:57:38;;;;;;;1.00;0.90;;;;;;;18.52;80.50;95767.94;5017490;28;20203;-88
2021/07/11 07:00:06;;;;;;;0.82;0.82;;;;;;;18.45;81.07;95777.69;5018456;28;20210;-88
2021/07/11 07:02:32;;;;;;;1.58;0.80;;;;;;;18.44;81.91;95776.91;5019408;28;20219;-87
2021/07/11 07:05:00;;;;;;;0.70;0.70;;;;;;;18.54;81.75;95769.31;5019022;28;20195;-88
2021/07/11 07:07:27;;;;;;;1.13;0.80;;;;;;;18.60;81.91;95771.09;5018356;28;20230;-88
2021/07/11 07:09:53;;;;;;;0.80;0.80;;;;;;;18.55;82.29;95772.72;5018598;28;20209;-86
2021/07/11 07:12:19;;;;;;;0.80;0.80;;;;;;;18.54;81.70;95779.75;5018459;28;20222;-88
2021/07/11 07:14:46;;;;;;;0.95;0.82;;;;;;;18.43;82.05;95777.13;5018142;28;20266;-88
2021/07/11 07:17:12;;;;;;;1.98;1.00;;;;;;;18.51;82.47;95789.81;5018694;28;20203;-87
2021/07/11 07:19:39;;;;;;;1.10;1.00;;;;;;;18.52;82.88;95775.78;5018466;28;20203;-87
2021/07/11 07:22:07;;;;;;;0.80;0.80;;;;;;;18.53;82.54;95779.97;5017792;28;20231;-87
2021/07/11 07:24:33;;;;;;;1.08;1.00;;;;;;;18.55;82.21;95781.34;5016808;28;20210;-87
2021/07/11 07:27:00;;;;;;;1.35;0.95;;;;;;;18.59;82.41;95779.13;5016598;28;20222;-86
2021/07/11 07:29:26;;;;;;;1.20;0.88;;;;;;;18.55;82.66;95783.16;5018129;28;20209;-87
2021/07/11 07:31:52;;;;;;;0.85;0.82;;;;;;;18.59;82.26;95779.13;5018436;28;20235;-87
2021/07/11 07:34:19;;;;;;;1.27;1.17;;;;;;;18.59;83.85;95785.16;5018319;28;20270;-87
2021/07/11 07:36:46;;;;;;;1.05;1.00;;;;;;;18.62;83.09;95787.31;5018239;28;20222;-88
2021/07/11 07:39:14;;;;;;;1.00;0.90;;;;;;;18.61;83.75;95792.75;5018097;28;20202;-87
2021/07/11 07:41:42;;;;;;;1.40;1.30;;;;;;;18.61;84.02;95792.75;5017186;28;20234;-87
2021/07/11 07:44:08;;;;;;;1.05;1.00;;;;;;;18.61;84.19;95790.94;5017500;28;20206;-87
2021/07/11 07:46:35;;;;;;;1.25;1.10;;;;;;;18.59;84.07;95789.56;5017518;28;20207;-87
2021/07/11 07:49:01;;;;;;;1.08;1.00;;;;;;;18.62;84.70;95789.13;5017230;28;20210;-87
2021/07/11 07:51:28;;;;;;;2.60;1.50;;;;;;;18.65;84.66;95790.50;5016829;28;20223;-87
2021/07/11 07:53:54;;;;;;;2.22;1.15;;;;;;;18.65;84.94;95800.94;5017257;28;20209;-87
2021/07/11 07:56:22;;;;;;;1.08;1.08;;;;;;;18.65;84.59;95801.72;5017330;28;20214;-87
2021/07/11 07:58:49;;;;;;;1.55;1.20;;;;;;;18.60;84.21;95797.16;5017328;28;20205;-87
2021/07/11 08:01:15;;;;;;;1.08;1.08;;;;;;;18.61;84.51;95806.59;5016518;28;20230;-87
2021/07/11 08:03:42;;;;;;;1.20;1.10;;;;;;;18.60;85.14;95791.94;5017101;28;20194;-87
2021/07/11 08:06:08;;;;;;;1.20;1.10;;;;;;;18.59;86.35;95792.97;5017070;28;20868;-87
2021/07/11 08:08:35;;;;;;;1.60;1.20;;;;;;;18.61;84.70;95795.34;5016975;28;20203;-87
2021/07/11 08:11:01;;;;;;;2.00;1.60;;;;;;;18.61;84.19;95795.34;5016789;28;20864;-87
2021/07/11 08:13:29;;;;;;;1.40;1.30;;;;;;;18.63;84.13;95794.13;5017516;28;20211;-87
2021/07/11 08:15:56;;;;;;;1.45;1.35;;;;;;;18.72;84.30;95791.97;5017132;28;20207;-87
2021/07/11 08:18:22;;;;;;;1.10;1.10;;;;;;;18.75;82.96;95804.59;5017433;28;20309;-87
2021/07/11 08:20:49;;;;;;;1.52;1.27;;;;;;;18.80;83.22;95794.28;5016981;28;20218;-87
2021/07/11 08:23:15;;;;;;;1.65;1.40;;;;;;;18.80;85.18;95801.31;5016870;28;20215;-87
2021/07/11 08:25:45;;;;;;;1.30;1.20;;;;;;;18.85;85.06;95801.47;5017276;28;20203;-87
2021/07/11 08:28:11;;;;;;;1.50;1.40;;;;;;;18.92;85.38;95808.16;5017973;28;20725;-87
2021/07/11 08:30:40;;;;;;;1.58;1.20;;;;;;;18.99;84.05;95808.06;5017090;28;20234;-87
2021/07/11 08:33:07;;;;;;;1.60;1.50;;;;;;;19.06;81.90;95802.72;5017142;28;20222;-87
2021/07/11 08:35:33;;;;;;;2.25;1.20;;;;;;;19.10;81.06;95802.06;5016647;28;20210;-87
2021/07/11 08:38:00;;;;;;;1.52;1.27;;;;;;;19.08;79.93;95808.53;5016845;28;20213;-87
2021/07/11 08:40:27;;;;;;;1.27;1.02;;;;;;;19.12;78.87;95807.84;5016455;28;20229;-88
2021/07/11 08:42:54;;;;;;;1.83;1.30;;;;;;;19.17;78.52;95799.38;5016130;28;20250;-87
2021/07/11 08:45:21;;;;;;;2.03;1.33;;;;;;;19.23;79.23;95804.50;5017075;28;20238;-87
2021/07/11 08:47:49;;;;;;;1.45;1.30;;;;;;;19.28;78.57;95801.97;5016741;28;20345;-88
2021/07/11 08:50:16;;;;;;;1.23;1.13;;;;;;;19.31;79.20;95798.13;5016183;28;20210;-87
2021/07/11 08:52:43;;;;;;;1.23;1.13;;;;;;;19.32;79.52;95807.56;5015418;28;20195;-87
2021/07/11 08:55:15;;;;;;;1.75;1.17;;;;;;;19.29;78.42;95808.78;5015741;28;20213;-87
2021/07/11 08:57:43;;;;;;;2.20;1.27;;;;;;;19.31;79.18;95806.75;5020451;28;20207;-88
2021/07/11 09:00:22;;;;;;;1.60;1.50;;;;;;;19.39;79.83;95803.03;5020125;28;20210;-87
2021/07/11 09:02:50;;;;;;;2.35;1.40;;;;;;;19.29;81.53;95806.19;5019855;28;20242;-87
2021/07/11 09:05:24;;;;;;;1.42;1.27;;;;;;;19.36;80.72;95798.25;5020314;28;20198;-87
2021/07/11 09:08:02;;;;;;;1.30;1.20;;;;;;;19.42;79.40;95799.97;5019905;28;20201;-87
2021/07/11 09:10:31;;;;;;;1.63;1.20;;;;;;;19.35;79.91;95803.69;5019836;28;20218;-87
2021/07/11 09:13:01;;;;;;;1.55;1.40;;;;;;;19.43;81.15;95812.00;5019763;28;20199;-87
2021/07/11 09:15:30;;;;;;;1.50;1.40;;;;;;;19.69;80.35;95807.38;5019862;28;20594;-87
2021/07/11 09:17:58;;;;;;;1.52;1.42;;;;;;;19.88;78.55;95798.38;5020012;28;20209;-87
2021/07/11 09:20:24;;;;;;;1.83;1.73;;;;;;;19.97;79.25;95818.72;5019509;28;20253;-87
2021/07/11 09:22:58;;;;;;;1.58;1.48;;;;;;;20.08;79.01;95817.09;5019714;28;20218;-87
2021/07/11 09:25:24;;;;;;;2.95;1.65;;;;;;;20.17;79.80;95818.34;5019397;28;20195;-87
2021/07/11 09:27:51;;;;;;;1.70;1.60;;;;;;;20.52;80.43;95814.88;5019545;28;20206;-87
2021/07/11 09:30:18;;;;;;;1.73;1.40;;;;;;;20.47;79.32;95810.34;5019574;28;20203;-87
2021/07/11 09:32:45;;;;;;;1.70;1.60;;;;;;;20.64;77.95;95815.63;5018811;28;20268;-87
2021/07/11 09:35:15;;;;;;;1.60;1.50;;;;;;;20.87;75.31;95815.53;5019628;28;20214;-87
2021/07/11 09:37:43;;;;;;;1.67;1.58;;;;;;;21.01;72.97;95808.16;5019655;28;20199;-87
2021/07/11 09:40:11;;;;;;;1.65;1.50;;;;;;;21.16;75.43;95805.03;5019233;28;20198;-87
2021/07/11 09:42:40;;;;;;;2.97;1.75;;;;;;;21.55;72.38;95801.44;5019316;28;20752;-87
2021/07/11 09:45:16;;;;;;;1.70;1.60;;;;;;;21.57;71.83;95809.06;5019542;28;20199;-87
2021/07/11 09:47:46;;;;;;;1.77;1.67;;;;;;;21.58;72.42;95803.59;5019035;28;20207;-87
2021/07/11 09:50:20;;;;;;;1.80;1.70;;;;;;;21.36;71.89;95803.53;5019109;28;20206;-87
2021/07/11 09:52:48;;;;;;;1.77;1.67;;;;;;;21.49;70.33;95812.91;5019225;28;20190;-86
2021/07/11 09:55:18;;;;;;;2.53;1.80;;;;;;;21.45;68.41;95803.94;5018553;28;20207;-86
2021/07/11 09:57:47;;;;;;;2.03;1.92;;;;;;;20.89;70.39;95808.22;5018873;28;20218;-87
2021/07/11 10:00:17;;;;;;;1.77;1.58;;;;;;;20.80;73.12;95814.88;5018196;28;20203;-87
2021/07/11 10:02:44;;;;;;;2.33;1.80;;;;;;;20.72;72.32;95817.88;5018603;28;20223;-87
2021/07/11 10:05:13;;;;;;;2.05;1.92;;;;;;;20.66;72.62;95803.09;5018702;28;20229;-87
2021/07/11 10:07:41;;;;;;;2.03;1.90;;;;;;;20.64;72.61;95805.94;5018232;28;20207;-87
2021/07/11 10:10:11;;;;;;;2.30;1.80;;;;;;;20.64;71.32;95797.31;5019185;28;20629;-86
2021/07/11 10:12:39;;;;;;;2.17;1.80;;;;;;;20.53;74.71;95800.78;5019471;28;20199;-86
2021/07/11 10:15:11;;;;;;;2.10;1.98;;;;;;;20.60;75.30;95804.03;5018896;28;20205;-87
2021/07/11 10:17:39;;;;;;;2.20;2.00;;;;;;;20.55;77.10;95802.13;5018971;28;20262;-85
2021/07/11 10:20:08;;;;;;;1.90;1.80;;;;;;;20.46;73.87;95810.56;5017970;28;20206;-86
2021/07/11 10:22:44;;;;;;;2.75;1.80;;;;;;;20.31;74.40;95800.56;5018533;28;20601;-86
2021/07/11 10:25:13;;;;;;;1.88;1.77;;;;;;;20.23;75.76;95808.78;5019042;28;20206;-86
2021/07/11 10:27:43;;;;;;;1.90;1.80;;;;;;;20.27;77.70;95812.53;5018660;28;20257;-88
2021/07/11 10:30:11;;;;;;;3.28;2.38;;;;;;;20.29;79.85;95805.25;5018508;28;20254;-87
2021/07/11 10:32:38;;;;;;;2.17;2.00;;;;;;;20.29;79.23;95806.03;5017831;28;20613;-87
2021/07/11 10:35:13;;;;;;;3.63;2.15;;;;;;;20.12;79.81;95797.31;5018208;28;20195;-87
2021/07/11 10:37:52;;;;;;;2.03;1.92;;;;;;;20.00;80.36;95797.34;5019421;28;20208;-87
2021/07/11 10:40:21;;;;;;;2.30;2.10;;;;;;;20.06;79.33;95803.47;5018498;28;20266;-87
2021/07/11 10:42:53;;;;;;;2.35;2.15;;;;;;;20.05;80.27;95807.09;5017753;28;20257;-86
2021/07/11 10:45:20;;;;;;;2.30;2.10;;;;;;;20.11;83.10;95803.56;5018501;28;20214;-87
2021/07/11 10:47:47;;;;;;;2.30;2.10;;;;;;;20.22;82.79;95801.94;5018317;28;20207;-86
2021/07/11 10:50:26;;;;;;;2.15;2.00;;;;;;;20.88;78.97;95798.00;5018184;28;20206;-87
2021/07/11 10:52:54;;;;;;;2.33;2.13;;;;;;;21.50;75.13;95788.28;5018846;28;20195;-87
2021/07/11 10:55:21;;;;;;;2.30;2.10;;;;;;;21.84;70.80;95786.41;5018128;28;20206;-87
2021/07/11 10:57:48;;;;;;;2.30;2.17;;;;;;;22.13;69.00;95794.16;5018040;28;20211;-87
2021/07/11 11:00:18;;;;;;;2.13;1.88;;;;;;;22.10;65.13;95781.53;5016592;28;20265;-87
2021/07/11 11:02:47;;;;;;;2.80;2.00;;;;;;;22.36;65.77;95786.03;5017185;28;20309;-88
2021/07/11 11:05:20;;;;;;;2.45;2.25;;;;;;;22.65;65.15;95779.53;5018028;28;20570;-87
2021/07/11 11:07:49;;;;;;;2.92;2.05;;;;;;;22.66;66.23;95781.13;5017157;28;20237;-87
2021/07/11 11:10:27;;;;;;;2.20;2.00;;;;;;;22.62;66.15;95779.22;5015934;28;20566;-87
2021/07/11 11:13:08;;;;;;;2.08;1.85;;;;;;;22.57;61.59;95779.16;5016881;28;20230;-87
2021/07/11 11:15:37;;;;;;;2.30;2.10;;;;;;;22.37;64.17;95780.53;5016484;28;20205;-87
2021/07/11 11:18:27;;;;;;;1.90;1.80;;;;;;;22.15;65.17;95773.69;5016750;28;20202;-87
2021/07/11 11:21:04;;;;;;;2.13;2.00;;;;;;;21.93;67.03;95768.44;5016135;28;20226;-87
2021/07/11 11:23:35;;;;;;;2.20;2.00;;;;;;;21.74;64.95;95773.19;5016614;28;20226;-87
2021/07/11 11:26:04;;;;;;;3.00;2.08;;;;;;;21.69;64.08;95776.53;5017326;28;20203;-87
2021/07/11 11:28:34;;;;;;;2.20;2.10;;;;;;;22.01;66.01;95773.28;5017361;28;20206;-85
2021/07/11 11:31:14;;;;;;;2.67;1.95;;;;;;;22.37;61.96;95774.50;5016836;28;20226;-86
2021/07/11 11:33:59;;;;;;;2.13;2.03;;;;;;;22.68;61.90;95773.78;5016542;28;20206;-85
2021/07/11 11:36:35;;;;;;;3.78;1.90;;;;;;;22.67;60.78;95776.66;5013486;28;20199;-85
2021/07/11 11:39:14;;;;;;;1.92;1.80;;;;;;;22.72;60.88;95769.59;5015025;28;20206;-86